Bronson, Iowa
Current Conditions -  °F | °C
As of 10:34 AM on Friday 19 Dec 2014 (Local Time) from KSUX Reporting Station
Haze Haze  
Wind Chill: 26°   Ceiling: 1400
Heat Index: 33°   Visibility: 6mi
Dew Point: 29°   Wind: 8mph
Humidity: 85%   Direction: 170°S
Pressure: 30.21"   Gusts: NA
Location:  42.41°N, 96.21°W
Report Text: KSUX 191634Z 17007KT 6SM BR OVC014 01/M02 A3021 RMK AO2 T00061017
Loading
Personal Weather Stations






























Interactive Weather Map New forecast layout! Learn more

10-Day Weather Forecast

Advertisements
Track Severe Weather on mobile